Time;durP1;ratioP1;P1;durP2;ratioP2;P2;SDS_P1;SDS_P2;PMS_P1;PMS_P2;Temp;Humidity;BMP_temperature;BMP_pressure;BME280_temperature;BME280_humidity;BME280_pressure;Samples;Min_cycle;Max_cycle;Signal;HPM_P1;HPM_P2
2022/06/19 00:01:46;;;;;;;14.00;4.32;;;;;;;;;;5039509;28;20053;-71
2022/06/19 00:04:52;;;;;;;12.23;3.60;;;;;;;;;;5052007;28;20033;-72
2022/06/19 00:07:56;;;;;;;4.18;2.28;;;;;;;;;;5051514;28;20036;-72
2022/06/19 00:11:01;;;;;;;8.05;2.22;;;;;;;;;;5052413;28;20040;-72
2022/06/19 00:14:06;;;;;;;7.45;1.95;;;;;;;;;;5051830;28;20048;-72
2022/06/19 00:17:11;;;;;;;7.35;2.60;;;;;;;;;;5051512;28;20037;-72
2022/06/19 00:20:15;;;;;;;10.32;1.85;;;;;;;;;;5051430;28;20469;-72
2022/06/19 00:23:20;;;;;;;11.48;2.42;;;;;;;;;;5051445;28;20406;-71
2022/06/19 00:26:24;;;;;;;7.93;2.25;;;;;;;;;;5051299;28;20029;-72
2022/06/19 00:29:28;;;;;;;9.63;2.72;;;;;;;;;;5050633;28;20037;-72
2022/06/19 00:32:33;;;;;;;9.20;2.30;;;;;;;;;;5051174;28;20037;-72
2022/06/19 00:35:37;;;;;;;6.70;2.20;;;;;;;;;;5051352;28;20041;-72
2022/06/19 00:38:42;;;;;;;8.68;2.40;;;;;;;;;;5050983;28;20041;-72
2022/06/19 00:41:46;;;;;;;18.05;2.80;;;;;;;;;;5051293;28;20049;-72
2022/06/19 00:44:51;;;;;;;7.35;2.30;;;;;;;;;;5050329;28;20041;-72
2022/06/19 00:47:55;;;;;;;10.52;2.45;;;;;;;;;;5050984;28;20037;-71
2022/06/19 00:51:02;;;;;;;7.68;1.80;;;;;;;;;;5051257;28;20037;-71
2022/06/19 00:54:07;;;;;;;5.88;2.10;;;;;;;;;;5050241;28;20033;-72
2022/06/19 00:57:13;;;;;;;6.30;1.70;;;;;;;;;;5050580;28;20037;-72
2022/06/19 01:00:26;;;;;;;4.20;2.08;;;;;;;;;;5051048;28;20037;-71
2022/06/19 01:03:36;;;;;;;4.90;2.17;;;;;;;;;;5050878;28;20060;-72
2022/06/19 01:06:40;;;;;;;7.10;2.00;;;;;;;;;;5049826;28;20033;-71
2022/06/19 01:09:44;;;;;;;15.60;2.65;;;;;;;;;;5050815;28;20048;-71
2022/06/19 01:12:49;;;;;;;7.72;1.90;;;;;;;;;;5050231;28;20041;-72
2022/06/19 01:15:53;;;;;;;9.70;2.47;;;;;;;;;;5050855;28;20184;-71
2022/06/19 01:19:00;;;;;;;5.72;1.90;;;;;;;;;;5050883;28;20029;-72
2022/06/19 01:22:10;;;;;;;7.53;1.85;;;;;;;;;;5049596;28;20518;-72
2022/06/19 01:25:15;;;;;;;;;;;;;;;;;;5051373;28;20472;-71
2022/06/19 01:31:51;;;;;;;9.10;1.98;;;;;;;;;;5050926;28;20064;-71
2022/06/19 01:34:55;;;;;;;6.28;2.00;;;;;;;;;;5050742;28;20037;-72
2022/06/19 01:38:02;;;;;;;5.95;2.13;;;;;;;;;;5050907;28;20033;-72
2022/06/19 01:41:11;;;;;;;7.60;1.70;;;;;;;;;;5050601;28;20036;-71
2022/06/19 01:44:15;;;;;;;6.63;2.00;;;;;;;;;;5049858;28;20053;-71
2022/06/19 01:47:20;;;;;;;6.65;2.10;;;;;;;;;;5050309;28;20033;-71
2022/06/19 01:50:25;;;;;;;8.27;2.03;;;;;;;;;;5050534;28;20041;-71
2022/06/19 01:53:32;;;;;;;8.55;1.80;;;;;;;;;;5050616;28;20037;-71
2022/06/19 01:56:37;;;;;;;8.82;1.80;;;;;;;;;;5050616;28;20041;-71
2022/06/19 01:59:42;;;;;;;8.77;1.95;;;;;;;;;;5050185;28;20036;-71
2022/06/19 02:02:51;;;;;;;7.50;1.90;;;;;;;;;;5050256;28;20048;-71
2022/06/19 02:05:57;;;;;;;4.63;2.10;;;;;;;;;;5049231;28;20037;-72
2022/06/19 02:09:03;;;;;;;6.82;1.83;;;;;;;;;;5053192;28;20041;-72
2022/06/19 02:12:08;;;;;;;9.25;1.73;;;;;;;;;;5054126;28;20330;-72
2022/06/19 02:15:13;;;;;;;6.43;1.80;;;;;;;;;;5054217;28;20041;-71
2022/06/19 02:18:26;;;;;;;4.57;1.90;;;;;;;;;;5053996;28;20492;-72
2022/06/19 02:21:36;;;;;;;6.13;2.03;;;;;;;;;;5052884;28;20390;-71
2022/06/19 02:24:41;;;;;;;3.55;1.80;;;;;;;;;;5054464;28;20040;-71
2022/06/19 02:27:45;;;;;;;3.08;1.90;;;;;;;;;;5053875;28;20049;-72
2022/06/19 02:30:50;;;;;;;6.22;1.73;;;;;;;;;;5053308;28;20041;-72
2022/06/19 02:33:56;;;;;;;5.88;1.70;;;;;;;;;;5053850;28;20033;-72
2022/06/19 02:37:01;;;;;;;3.25;1.55;;;;;;;;;;5053696;28;20044;-71
2022/06/19 02:40:25;;;;;;;5.88;2.10;;;;;;;;;;5053705;28;20044;-71
2022/06/19 02:43:32;;;;;;;4.45;1.90;;;;;;;;;;5053388;28;20111;-72
2022/06/19 02:46:37;;;;;;;3.40;1.67;;;;;;;;;;5053175;28;20025;-71
2022/06/19 02:49:42;;;;;;;3.28;1.73;;;;;;;;;;5053647;28;20040;-72
2022/06/19 02:52:46;;;;;;;3.67;1.60;;;;;;;;;;5052529;28;20481;-71
2022/06/19 02:55:51;;;;;;;7.47;2.03;;;;;;;;;;5053460;28;20492;-72
2022/06/19 02:58:55;;;;;;;6.93;1.60;;;;;;;;;;5053386;28;20040;-71
2022/06/19 03:01:59;;;;;;;6.60;2.28;;;;;;;;;;5052367;28;20311;-72
2022/06/19 03:05:05;;;;;;;6.00;1.95;;;;;;;;;;5052607;28;20037;-72
2022/06/19 03:08:09;;;;;;;4.93;1.95;;;;;;;;;;5053195;28;20196;-71
2022/06/19 03:11:13;;;;;;;4.78;2.13;;;;;;;;;;5052541;28;20477;-71
2022/06/19 03:14:18;;;;;;;7.32;1.98;;;;;;;;;;5052280;28;20041;-72
2022/06/19 03:17:22;;;;;;;5.90;1.70;;;;;;;;;;5052973;28;20180;-72
2022/06/19 03:20:27;;;;;;;2.72;1.88;;;;;;;;;;5053055;28;20037;-72
2022/06/19 03:23:31;;;;;;;7.63;1.90;;;;;;;;;;5052572;28;20385;-71
2022/06/19 03:26:35;;;;;;;3.08;1.73;;;;;;;;;;5052051;28;20037;-72
2022/06/19 03:29:39;;;;;;;7.82;2.00;;;;;;;;;;5052940;28;20041;-71
2022/06/19 03:32:44;;;;;;;5.57;1.90;;;;;;;;;;5052621;28;20383;-71
2022/06/19 03:35:48;;;;;;;11.30;1.90;;;;;;;;;;5052699;28;20037;-71
2022/06/19 03:38:52;;;;;;;3.70;1.90;;;;;;;;;;5052573;28;20033;-71
2022/06/19 03:41:57;;;;;;;4.03;2.08;;;;;;;;;;5052314;28;20037;-72
2022/06/19 03:45:01;;;;;;;3.90;1.95;;;;;;;;;;5051555;28;20045;-71
2022/06/19 03:48:05;;;;;;;9.23;2.08;;;;;;;;;;5052432;28;20049;-71
2022/06/19 03:51:10;;;;;;;4.60;2.30;;;;;;;;;;5052861;28;20150;-71
2022/06/19 03:54:14;;;;;;;3.72;1.80;;;;;;;;;;5052042;28;20040;-71
2022/06/19 03:57:19;;;;;;;7.72;2.08;;;;;;;;;;5051373;28;20512;-71
2022/06/19 04:00:23;;;;;;;9.10;2.00;;;;;;;;;;5052099;28;20045;-72
2022/06/19 04:03:27;;;;;;;5.85;2.10;;;;;;;;;;5051678;28;20044;-71
2022/06/19 04:06:33;;;;;;;13.95;2.47;;;;;;;;;;5052115;28;20032;-72
2022/06/19 04:09:37;;;;;;;11.07;2.90;;;;;;;;;;5051670;28;20108;-71
2022/06/19 04:12:41;;;;;;;18.35;2.83;;;;;;;;;;5051689;28;20036;-71
2022/06/19 04:15:45;;;;;;;10.75;2.20;;;;;;;;;;5051953;28;20040;-71
2022/06/19 04:18:50;;;;;;;62.83;5.03;;;;;;;;;;5051689;28;20037;-71
2022/06/19 04:21:55;;;;;;;10.82;2.67;;;;;;;;;;5051596;28;20493;-72
2022/06/19 04:24:59;;;;;;;11.30;2.60;;;;;;;;;;5051820;28;20044;-71
2022/06/19 04:28:04;;;;;;;12.50;2.10;;;;;;;;;;5051675;28;20033;-72
2022/06/19 04:31:09;;;;;;;10.77;2.60;;;;;;;;;;5050599;28;20045;-72
2022/06/19 04:34:13;;;;;;;11.32;2.10;;;;;;;;;;5050660;28;20036;-71
2022/06/19 04:37:17;;;;;;;9.35;2.10;;;;;;;;;;5050651;28;20033;-72
2022/06/19 04:40:21;;;;;;;14.25;2.47;;;;;;;;;;5051645;28;20037;-72
2022/06/19 04:43:26;;;;;;;10.98;2.50;;;;;;;;;;5050225;28;20049;-72
2022/06/19 04:46:30;;;;;;;7.75;2.47;;;;;;;;;;5050655;28;20041;-71
2022/06/19 04:49:34;;;;;;;11.70;2.50;;;;;;;;;;5050440;28;20044;-71
2022/06/19 04:52:38;;;;;;;11.82;3.33;;;;;;;;;;5027640;28;20041;-72
2022/06/19 04:55:43;;;;;;;7.78;3.47;;;;;;;;;;5050460;28;20044;-72
2022/06/19 04:58:47;;;;;;;8.77;2.97;;;;;;;;;;5050980;28;20041;-72
2022/06/19 05:01:52;;;;;;;8.70;2.85;;;;;;;;;;5051094;28;20037;-72
2022/06/19 05:04:56;;;;;;;8.07;2.75;;;;;;;;;;5051067;28;20049;-72
2022/06/19 05:08:00;;;;;;;8.13;3.17;;;;;;;;;;5050803;28;20033;-72
2022/06/19 05:11:05;;;;;;;10.25;2.88;;;;;;;;;;5050110;28;20045;-72
2022/06/19 05:14:09;;;;;;;6.07;2.65;;;;;;;;;;5050565;28;20060;-72
2022/06/19 05:17:14;;;;;;;10.00;2.53;;;;;;;;;;5051017;28;20037;-72
2022/06/19 05:20:19;;;;;;;12.30;2.90;;;;;;;;;;5051043;28;20473;-72
2022/06/19 05:23:23;;;;;;;5.90;2.70;;;;;;;;;;5049756;28;20045;-72
2022/06/19 05:26:31;;;;;;;7.20;2.60;;;;;;;;;;5050966;28;20041;-72
2022/06/19 05:29:36;;;;;;;4.88;2.53;;;;;;;;;;5050791;28;20041;-72
2022/06/19 05:32:41;;;;;;;7.18;2.65;;;;;;;;;;5050950;28;20037;-72
2022/06/19 05:35:45;;;;;;;8.57;2.65;;;;;;;;;;5050584;28;20049;-72
2022/06/19 05:38:50;;;;;;;12.60;2.45;;;;;;;;;;5050858;28;20037;-72
2022/06/19 05:41:57;;;;;;;6.57;2.83;;;;;;;;;;5049802;28;20381;-72
2022/06/19 05:45:02;;;;;;;3.63;2.33;;;;;;;;;;5053885;28;20040;-72
2022/06/19 05:48:07;;;;;;;6.03;2.53;;;;;;;;;;5053528;28;20033;-72
2022/06/19 05:51:13;;;;;;;3.90;2.50;;;;;;;;;;5053782;28;20279;-72
2022/06/19 05:54:17;;;;;;;6.22;2.42;;;;;;;;;;5054704;28;20033;-72
2022/06/19 05:57:22;;;;;;;14.52;2.80;;;;;;;;;;5054192;28;20033;-72
2022/06/19 06:00:26;;;;;;;12.63;2.83;;;;;;;;;;5042136;28;20377;-71
2022/06/19 06:03:31;;;;;;;13.20;3.33;;;;;;;;;;5054168;28;20496;-72
2022/06/19 06:06:35;;;;;;;9.55;4.07;;;;;;;;;;5054108;28;20033;-72
2022/06/19 06:09:39;;;;;;;4.68;2.63;;;;;;;;;;5054335;28;20033;-72
2022/06/19 06:12:44;;;;;;;13.48;2.65;;;;;;;;;;5054418;28;20045;-72
2022/06/19 06:15:49;;;;;;;8.40;2.28;;;;;;;;;;5053777;28;20033;-71
2022/06/19 06:18:53;;;;;;;5.95;2.17;;;;;;;;;;5053970;28;20033;-72
2022/06/19 06:21:57;;;;;;;14.20;2.10;;;;;;;;;;5053703;28;20045;-72
2022/06/19 06:25:02;;;;;;;7.90;2.10;;;;;;;;;;5053980;28;20041;-72
2022/06/19 06:28:06;;;;;;;6.20;2.40;;;;;;;;;;5054129;28;20041;-72
2022/06/19 06:31:12;;;;;;;8.30;2.92;;;;;;;;;;5053748;28;20045;-72
2022/06/19 06:34:16;;;;;;;10.57;2.75;;;;;;;;;;5053982;28;20037;-72
2022/06/19 06:37:21;;;;;;;12.50;2.60;;;;;;;;;;5052667;28;20491;-72
2022/06/19 06:40:25;;;;;;;8.35;2.45;;;;;;;;;;5052817;28;20177;-72
2022/06/19 06:43:30;;;;;;;23.23;3.10;;;;;;;;;;5053560;28;20040;-72
2022/06/19 06:46:34;;;;;;;11.85;3.28;;;;;;;;;;5053432;28;20481;-71
2022/06/19 06:49:38;;;;;;;29.95;3.97;;;;;;;;;;5053695;28;20041;-72
2022/06/19 06:52:42;;;;;;;20.17;3.70;;;;;;;;;;5053482;28;20037;-71
2022/06/19 06:55:47;;;;;;;23.77;3.28;;;;;;;;;;5053312;28;20037;-72
2022/06/19 06:58:51;;;;;;;17.30;3.55;;;;;;;;;;5053488;28;20040;-72
2022/06/19 07:01:56;;;;;;;12.68;3.42;;;;;;;;;;5053189;28;20033;-72
2022/06/19 07:05:00;;;;;;;18.27;4.05;;;;;;;;;;5053086;28;20037;-71
2022/06/19 07:08:05;;;;;;;26.13;4.85;;;;;;;;;;5053291;28;20036;-72
2022/06/19 07:11:14;;;;;;;12.35;4.40;;;;;;;;;;5053147;28;20037;-72
2022/06/19 07:14:19;;;;;;;12.07;5.15;;;;;;;;;;5052801;28;20480;-72
2022/06/19 07:17:23;;;;;;;13.23;5.55;;;;;;;;;;5053408;28;20184;-71
2022/06/19 07:20:28;;;;;;;17.67;6.25;;;;;;;;;;5052663;28;20373;-72
2022/06/19 07:23:32;;;;;;;15.18;7.18;;;;;;;;;;5040361;28;20053;-72
2022/06/19 07:26:36;;;;;;;14.25;6.00;;;;;;;;;;5053090;28;20357;-72
2022/06/19 07:29:45;;;;;;;12.35;5.35;;;;;;;;;;5052197;28;20033;-72
2022/06/19 07:32:49;;;;;;;12.10;4.72;;;;;;;;;;5052809;28;20041;-72
2022/06/19 07:35:53;;;;;;;8.95;3.95;;;;;;;;;;5052592;28;20097;-72
2022/06/19 07:38:57;;;;;;;9.48;3.67;;;;;;;;;;5052329;28;20382;-72
2022/06/19 07:42:04;;;;;;;6.32;2.95;;;;;;;;;;5052505;28;20370;-72
2022/06/19 07:45:09;;;;;;;10.02;2.95;;;;;;;;;;5052366;28;20500;-71
2022/06/19 07:51:35;;;;;;;22.70;3.92;;;;;;;;;;5052258;28;20029;-72
2022/06/19 07:54:40;;;;;;;6.68;3.25;;;;;;;;;;5052429;28;20037;-72
2022/06/19 07:57:44;;;;;;;5.75;2.67;;;;;;;;;;5051995;28;20033;-72
2022/06/19 08:00:49;;;;;;;13.95;3.60;;;;;;;;;;5051828;28;20469;-72
2022/06/19 08:03:53;;;;;;;6.10;2.40;;;;;;;;;;5051767;28;20041;-71
2022/06/19 08:06:57;;;;;;;8.90;2.55;;;;;;;;;;5051040;28;20033;-72
2022/06/19 08:10:02;;;;;;;7.88;2.72;;;;;;;;;;5052062;28;20041;-72
2022/06/19 08:13:07;;;;;;;8.60;3.38;;;;;;;;;;5051893;28;20566;-72
2022/06/19 08:16:11;;;;;;;9.52;2.75;;;;;;;;;;5051968;28;20113;-72
2022/06/19 08:19:16;;;;;;;11.30;3.40;;;;;;;;;;5039750;28;20662;-72
2022/06/19 08:22:20;;;;;;;8.15;2.33;;;;;;;;;;5050614;28;20044;-72
2022/06/19 08:25:25;;;;;;;12.13;3.15;;;;;;;;;;5051819;28;20040;-72
2022/06/19 08:29:12;;;;;;;8.57;3.00;;;;;;;;;;5051735;28;20037;-72
2022/06/19 08:31:57;;;;;;;3.60;2.10;;;;;;;;;;5056188;28;20488;-73
2022/06/19 08:35:01;;;;;;;4.60;2.40;;;;;;;;;;5050747;28;20041;-72
2022/06/19 08:38:07;;;;;;;9.55;2.05;;;;;;;;;;5051714;28;20041;-72
2022/06/19 08:41:30;;;;;;;6.35;1.98;;;;;;;;;;5051623;28;20032;-72
2022/06/19 08:44:53;;;;;;;5.43;2.50;;;;;;;;;;5050641;28;20041;-72
2022/06/19 08:48:06;;;;;;;5.53;2.22;;;;;;;;;;5051557;28;20044;-72
2022/06/19 08:51:14;;;;;;;5.63;2.50;;;;;;;;;;5051058;28;20041;-71
2022/06/19 08:54:37;;;;;;;5.82;2.40;;;;;;;;;;5050737;28;20460;-72
2022/06/19 08:57:44;;;;;;;4.50;1.95;;;;;;;;;;5051051;28;20049;-72
2022/06/19 09:00:49;;;;;;;53.70;4.82;;;;;;;;;;5051100;28;20041;-70
2022/06/19 09:07:31;;;;;;;9.13;2.10;;;;;;;;;;5051002;28;20025;-71
2022/06/19 09:10:36;;;;;;;7.32;2.67;;;;;;;;;;5051085;28;20048;-71
2022/06/19 09:13:59;;;;;;;12.73;2.65;;;;;;;;;;5050309;28;20037;-71
2022/06/19 09:17:10;;;;;;;6.03;3.15;;;;;;;;;;5050881;28;20045;-71
2022/06/19 09:20:21;;;;;;;9.23;2.63;;;;;;;;;;5051018;28;20366;-71
2022/06/19 09:23:44;;;;;;;5.65;2.40;;;;;;;;;;5050461;28;20056;-71
2022/06/19 09:26:55;;;;;;;6.25;2.72;;;;;;;;;;5049911;28;20037;-71
2022/06/19 09:30:09;;;;;;;14.63;5.88;;;;;;;;;;5050701;28;20041;-71
2022/06/19 09:33:32;;;;;;;2.97;2.10;;;;;;;;;;5050772;28;20040;-71
2022/06/19 09:36:36;;;;;;;8.75;3.13;;;;;;;;;;5050523;28;20354;-72
2022/06/19 09:39:46;;;;;;;8.65;3.85;;;;;;;;;;5050538;28;20037;-72
2022/06/19 09:42:54;;;;;;;6.70;4.35;;;;;;;;;;5050567;28;20029;-71
2022/06/19 09:45:58;;;;;;;6.07;2.75;;;;;;;;;;5050515;28;20362;-71
2022/06/19 09:49:06;;;;;;;3.72;2.95;;;;;;;;;;5050331;28;20033;-72
2022/06/19 09:52:18;;;;;;;4.75;2.30;;;;;;;;;;5050752;28;20052;-71
2022/06/19 09:55:32;;;;;;;4.32;2.65;;;;;;;;;;5050381;28;20041;-72
2022/06/19 09:58:43;;;;;;;7.63;2.30;;;;;;;;;;5049866;28;20049;-71
2022/06/19 10:01:56;;;;;;;6.65;2.42;;;;;;;;;;5050610;28;20045;-71
2022/06/19 10:05:06;;;;;;;4.72;2.50;;;;;;;;;;5049426;28;20049;-71
2022/06/19 10:08:17;;;;;;;5.22;2.63;;;;;;;;;;5050677;28;20029;-71
2022/06/19 10:11:23;;;;;;;3.42;2.30;;;;;;;;;;5050271;28;20480;-71
2022/06/19 10:14:37;;;;;;;9.27;3.10;;;;;;;;;;5050042;28;20029;-71
2022/06/19 10:17:56;;;;;;;7.88;2.58;;;;;;;;;;5050324;28;20049;-71
2022/06/19 10:22:13;;;;;;;8.40;2.80;;;;;;;;;;5050061;28;20041;-71
2022/06/19 10:24:49;;;;;;;5.72;2.40;;;;;;;;;;5050165;28;20052;-70
2022/06/19 10:28:02;;;;;;;5.50;2.40;;;;;;;;;;5050285;28;20037;-71
2022/06/19 10:31:06;;;;;;;3.90;2.67;;;;;;;;;;5052912;28;20033;-72
2022/06/19 10:34:19;;;;;;;5.82;2.40;;;;;;;;;;5053832;28;20040;-72
2022/06/19 10:37:42;;;;;;;3.15;2.22;;;;;;;;;;5053492;28;20036;-72
2022/06/19 10:40:58;;;;;;;4.20;2.50;;;;;;;;;;5053739;28;20472;-71
2022/06/19 10:44:13;;;;;;;9.60;2.58;;;;;;;;;;5053397;28;20057;-71
2022/06/19 10:47:23;;;;;;;6.80;2.35;;;;;;;;;;5053627;28;20045;-72
2022/06/19 10:50:36;;;;;;;4.57;2.72;;;;;;;;;;5053311;28;20033;-72
2022/06/19 10:53:59;;;;;;;13.88;2.50;;;;;;;;;;5053223;28;20041;-71
2022/06/19 10:57:06;;;;;;;7.03;2.28;;;;;;;;;;5053452;28;20481;-71
2022/06/19 11:00:11;;;;;;;2.95;2.20;;;;;;;;;;5052496;28;20041;-71
2022/06/19 11:06:56;;;;;;;8.30;2.67;;;;;;;;;;5053593;28;20045;-71
2022/06/19 11:10:04;;;;;;;8.45;2.45;;;;;;;;;;5052874;28;20037;-72
2022/06/19 11:13:08;;;;;;;5.20;2.65;;;;;;;;;;5052897;28;20037;-72
2022/06/19 11:16:12;;;;;;;6.15;2.05;;;;;;;;;;5053065;28;20049;-73
2022/06/19 11:19:37;;;;;;;10.45;2.50;;;;;;;;;;5053144;28;20378;-72
2022/06/19 11:22:42;;;;;;;3.58;2.20;;;;;;;;;;5052681;28;20045;-72
2022/06/19 11:25:55;;;;;;;5.63;2.35;;;;;;;;;;5052789;28;20044;-72
2022/06/19 11:29:07;;;;;;;6.80;2.25;;;;;;;;;;5052864;28;20033;-72
2022/06/19 11:32:22;;;;;;;3.97;2.20;;;;;;;;;;5052946;28;20036;-72
2022/06/19 11:35:36;;;;;;;10.75;2.50;;;;;;;;;;5052908;28;20445;-72
2022/06/19 11:38:45;;;;;;;5.45;2.38;;;;;;;;;;5052419;28;20044;-72
2022/06/19 11:41:49;;;;;;;5.25;1.80;;;;;;;;;;5052731;28;20045;-73
2022/06/19 11:45:00;;;;;;;9.57;2.75;;;;;;;;;;5052413;28;20040;-72
2022/06/19 11:48:07;;;;;;;6.07;2.30;;;;;;;;;;5052500;28;20037;-72
2022/06/19 11:51:20;;;;;;;6.10;2.42;;;;;;;;;;5052362;28;20045;-73
2022/06/19 11:54:27;;;;;;;4.97;2.25;;;;;;;;;;5051707;28;20370;-72
2022/06/19 11:57:33;;;;;;;3.40;1.85;;;;;;;;;;5052010;28;20041;-72
2022/06/19 12:00:37;;;;;;;3.15;1.90;;;;;;;;;;5052649;28;20041;-73
2022/06/19 12:03:46;;;;;;;5.45;1.90;;;;;;;;;;5051218;28;20049;-72
2022/06/19 12:06:52;;;;;;;3.10;1.92;;;;;;;;;;5052225;28;20033;-72
2022/06/19 12:09:57;;;;;;;2.33;1.70;;;;;;;;;;5052062;28;20508;-73
2022/06/19 12:13:02;;;;;;;4.90;2.10;;;;;;;;;;5052225;28;20032;-72
2022/06/19 12:16:12;;;;;;;3.33;2.33;;;;;;;;;;5051736;28;20037;-73
2022/06/19 12:19:30;;;;;;;4.63;2.00;;;;;;;;;;5050869;28;20041;-73
2022/06/19 12:22:52;;;;;;;4.75;2.00;;;;;;;;;;5050636;28;20538;-73
2022/06/19 12:25:59;;;;;;;4.85;2.05;;;;;;;;;;5050865;28;20040;-72
2022/06/19 12:29:23;;;;;;;4.72;1.85;;;;;;;;;;5051270;28;20032;-73
2022/06/19 12:32:30;;;;;;;4.68;2.38;;;;;;;;;;5053825;28;20393;-73
2022/06/19 12:35:36;;;;;;;8.52;2.25;;;;;;;;;;5051603;28;20041;-72
2022/06/19 12:38:42;;;;;;;6.20;2.22;;;;;;;;;;5051501;28;20044;-72
2022/06/19 12:42:01;;;;;;;5.07;1.73;;;;;;;;;;5051271;28;20033;-72
2022/06/19 12:45:13;;;;;;;2.13;1.80;;;;;;;;;;5051421;28;20045;-72
2022/06/19 12:48:36;;;;;;;3.55;1.75;;;;;;;;;;5051547;28;20037;-73
2022/06/19 12:51:51;;;;;;;3.13;2.20;;;;;;;;;;5050889;28;20045;-73
2022/06/19 12:55:08;;;;;;;2.20;1.83;;;;;;;;;;5050959;28;20037;-72
2022/06/19 12:58:12;;;;;;;3.67;1.60;;;;;;;;;;5051471;28;20037;-72
2022/06/19 13:01:29;;;;;;;4.82;2.08;;;;;;;;;;5051002;28;20033;-72
2022/06/19 13:04:39;;;;;;;4.30;1.63;;;;;;;;;;5038603;28;20048;-72
2022/06/19 13:08:09;;;;;;;2.28;1.63;;;;;;;;;;5051185;28;20041;-73
2022/06/19 13:11:32;;;;;;;1.95;1.45;;;;;;;;;;5050837;28;20041;-72
2022/06/19 13:14:46;;;;;;;2.05;1.45;;;;;;;;;;5038442;28;20041;-72
2022/06/19 13:17:53;;;;;;;3.28;1.48;;;;;;;;;;5050983;28;20049;-72
2022/06/19 13:21:01;;;;;;;6.47;1.65;;;;;;;;;;5050823;28;20461;-72
2022/06/19 13:24:18;;;;;;;6.32;1.60;;;;;;;;;;5050687;28;20045;-72
2022/06/19 13:27:28;;;;;;;4.72;1.55;;;;;;;;;;5050268;28;20036;-72
2022/06/19 13:30:32;;;;;;;6.88;1.70;;;;;;;;;;5051056;28;20076;-72
2022/06/19 13:33:46;;;;;;;4.78;1.70;;;;;;;;;;5050213;28;20044;-72
2022/06/19 13:37:02;;;;;;;3.35;1.88;;;;;;;;;;5051030;28;20029;-72
2022/06/19 13:40:12;;;;;;;6.57;3.20;;;;;;;;;;5050011;28;20045;-73
2022/06/19 13:43:17;;;;;;;4.70;1.60;;;;;;;;;;5050738;28;20049;-72
2022/06/19 13:46:24;;;;;;;2.95;1.83;;;;;;;;;;5050634;28;20045;-72
2022/06/19 13:49:34;;;;;;;5.70;1.40;;;;;;;;;;5050092;28;20041;-72
2022/06/19 13:52:47;;;;;;;3.63;1.90;;;;;;;;;;5050684;28;20037;-72
2022/06/19 13:55:51;;;;;;;2.90;1.60;;;;;;;;;;5050803;28;20041;-72
2022/06/19 13:59:23;;;;;;;6.03;2.20;;;;;;;;;;5050698;28;20561;-72
2022/06/19 14:02:36;;;;;;;2.92;1.67;;;;;;;;;;5050711;28;20470;-72
2022/06/19 14:05:42;;;;;;;5.20;1.65;;;;;;;;;;5054300;28;20037;-72
2022/06/19 14:08:53;;;;;;;4.53;1.60;;;;;;;;;;5054162;28;20045;-72
2022/06/19 14:12:04;;;;;;;2.65;1.70;;;;;;;;;;5054235;28;20033;-73
2022/06/19 14:15:14;;;;;;;1.67;1.17;;;;;;;;;;5053950;28;20025;-73
2022/06/19 14:18:34;;;;;;;2.42;1.40;;;;;;;;;;5054330;28;20041;-72
2022/06/19 14:21:57;;;;;;;6.60;2.10;;;;;;;;;;5041613;28;20485;-72
2022/06/19 14:25:20;;;;;;;3.70;1.55;;;;;;;;;;5053876;28;20053;-72
2022/06/19 14:28:27;;;;;;;3.88;2.20;;;;;;;;;;5054071;28;20045;-72
2022/06/19 14:31:31;;;;;;;4.13;1.63;;;;;;;;;;5053996;28;20370;-72
2022/06/19 14:34:47;;;;;;;3.05;1.52;;;;;;;;;;5053949;28;20049;-72
2022/06/19 14:38:01;;;;;;;3.55;1.70;;;;;;;;;;5053914;28;20041;-71
2022/06/19 14:41:10;;;;;;;3.67;1.60;;;;;;;;;;5053984;28;20194;-72
2022/06/19 14:44:16;;;;;;;3.47;1.70;;;;;;;;;;5053569;28;20044;-72
2022/06/19 14:47:25;;;;;;;4.43;1.58;;;;;;;;;;5052774;28;20476;-72
2022/06/19 14:50:29;;;;;;;8.95;1.85;;;;;;;;;;5053775;28;20048;-72
2022/06/19 14:53:50;;;;;;;4.28;1.52;;;;;;;;;;5053493;28;20037;-72
2022/06/19 14:57:14;;;;;;;3.97;1.85;;;;;;;;;;5052756;28;20037;-72
2022/06/19 15:00:24;;;;;;;2.25;1.50;;;;;;;;;;5053095;28;20025;-72
2022/06/19 15:03:28;;;;;;;5.68;1.50;;;;;;;;;;5051751;28;20558;-72
2022/06/19 15:06:38;;;;;;;6.60;1.60;;;;;;;;;;5052486;28;20033;-71
2022/06/19 15:09:51;;;;;;;2.40;1.52;;;;;;;;;;5052973;28;20041;-72
2022/06/19 15:13:05;;;;;;;4.38;1.60;;;;;;;;;;5051615;28;20401;-72
2022/06/19 15:16:15;;;;;;;4.43;1.50;;;;;;;;;;5052126;28;20040;-72
2022/06/19 15:19:34;;;;;;;3.70;1.55;;;;;;;;;;5052497;28;20037;-72
2022/06/19 15:22:40;;;;;;;4.00;1.88;;;;;;;;;;5052464;28;20107;-72
2022/06/19 15:25:45;;;;;;;5.43;1.92;;;;;;;;;;5052419;28;20045;-72
2022/06/19 15:28:49;;;;;;;4.22;1.92;;;;;;;;;;5052025;28;20037;-72
2022/06/19 15:31:57;;;;;;;4.25;1.50;;;;;;;;;;5052542;28;20037;-72
2022/06/19 15:35:21;;;;;;;5.82;1.70;;;;;;;;;;5052365;28;20041;-71
2022/06/19 15:38:43;;;;;;;2.75;1.50;;;;;;;;;;5051696;28;20041;-72
2022/06/19 15:41:52;;;;;;;5.57;1.35;;;;;;;;;;5051985;28;20045;-72
2022/06/19 15:45:02;;;;;;;5.30;1.85;;;;;;;;;;5051981;28;20516;-72
2022/06/19 15:48:13;;;;;;;1.80;1.48;;;;;;;;;;5051500;28;20041;-72
2022/06/19 15:51:20;;;;;;;3.08;1.83;;;;;;;;;;5051437;28;20036;-72
2022/06/19 15:54:25;;;;;;;5.00;2.05;;;;;;;;;;5051889;28;20045;-72
2022/06/19 15:57:29;;;;;;;4.90;1.80;;;;;;;;;;5051382;28;20045;-72
2022/06/19 16:00:35;;;;;;;3.50;1.70;;;;;;;;;;5052034;28;20033;-72
2022/06/19 16:03:47;;;;;;;4.07;1.88;;;;;;;;;;5051051;28;20053;-72
2022/06/19 16:06:57;;;;;;;3.13;2.00;;;;;;;;;;5051849;28;20037;-72
2022/06/19 16:10:03;;;;;;;5.00;2.10;;;;;;;;;;5051687;28;20041;-72
2022/06/19 16:13:13;;;;;;;5.78;1.83;;;;;;;;;;5051150;28;20508;-72
2022/06/19 16:16:23;;;;;;;4.50;2.08;;;;;;;;;;5051609;28;20369;-72
2022/06/19 16:19:36;;;;;;;5.20;2.17;;;;;;;;;;5051554;28;20041;-72
2022/06/19 16:22:40;;;;;;;8.40;1.88;;;;;;;;;;5050991;28;20053;-72
2022/06/19 16:25:47;;;;;;;3.17;1.90;;;;;;;;;;5051405;28;20049;-72
2022/06/19 16:28:51;;;;;;;2.33;1.60;;;;;;;;;;5051107;28;20397;-72
2022/06/19 16:31:57;;;;;;;4.07;2.03;;;;;;;;;;5050234;28;20488;-72
2022/06/19 16:45:28;;;;;;;5.47;1.88;;;;;;;;;;5049741;28;20405;-72
2022/06/19 16:48:33;;;;;;;5.93;1.95;;;;;;;;;;5050817;28;20033;-72
2022/06/19 16:51:37;;;;;;;4.28;1.70;;;;;;;;;;5050992;28;20168;-72
2022/06/19 16:54:48;;;;;;;4.38;2.05;;;;;;;;;;5050278;28;20029;-71
2022/06/19 16:57:53;;;;;;;;;;;;;;;;;;5050665;28;20041;-71
2022/06/19 17:01:04;;;;;;;5.28;1.77;;;;;;;;;;5050165;28;20394;-72
2022/06/19 17:04:13;;;;;;;4.18;1.95;;;;;;;;;;5050349;28;20053;-71
2022/06/19 17:07:17;;;;;;;5.32;1.88;;;;;;;;;;5050041;28;20033;-71
2022/06/19 17:10:23;;;;;;;2.53;1.65;;;;;;;;;;5050638;28;20045;-71
2022/06/19 17:13:28;;;;;;;5.30;1.95;;;;;;;;;;5050685;28;20041;-72
2022/06/19 17:16:34;;;;;;;5.53;1.80;;;;;;;;;;5050532;28;20068;-71
2022/06/19 17:19:54;;;;;;;3.67;1.77;;;;;;;;;;5050809;28;20041;-73
2022/06/19 17:23:01;;;;;;;5.95;2.15;;;;;;;;;;5040499;28;20056;-72
2022/06/19 17:26:16;;;;;;;3.42;1.83;;;;;;;;;;5051955;28;20442;-71
2022/06/19 17:29:38;;;;;;;8.25;2.22;;;;;;;;;;5052986;28;20036;-71
2022/06/19 17:32:42;;;;;;;12.65;3.22;;;;;;;;;;5052595;28;20029;-71
2022/06/19 17:35:47;;;;;;;4.90;3.35;;;;;;;;;;5051758;28;20029;-72
2022/06/19 17:38:56;;;;;;;5.35;2.40;;;;;;;;;;5053040;28;20049;-71
2022/06/19 17:42:19;;;;;;;12.45;3.08;;;;;;;;;;5053738;28;20037;-72
2022/06/19 17:45:24;;;;;;;6.30;3.47;;;;;;;;;;5054143;28;20045;-72
2022/06/19 17:48:36;;;;;;;9.65;3.20;;;;;;;;;;5054472;28;20033;-72
2022/06/19 17:51:42;;;;;;;4.82;2.42;;;;;;;;;;5054207;28;20488;-72
2022/06/19 17:54:54;;;;;;;3.22;2.20;;;;;;;;;;5054650;28;20037;-71
2022/06/19 17:58:03;;;;;;;7.22;2.40;;;;;;;;;;5053462;28;20033;-71
2022/06/19 18:01:17;;;;;;;7.07;2.50;;;;;;;;;;5053387;28;20037;-71
2022/06/19 18:04:25;;;;;;;7.45;2.25;;;;;;;;;;5052877;28;20052;-71
2022/06/19 18:07:31;;;;;;;5.00;2.63;;;;;;;;;;5054033;28;20037;-71
2022/06/19 18:10:37;;;;;;;6.68;2.53;;;;;;;;;;5053904;28;20045;-71
2022/06/19 18:13:48;;;;;;;12.35;2.65;;;;;;;;;;5053819;28;20366;-71
2022/06/19 18:20:17;;;;;;;11.30;2.30;;;;;;;;;;5053483;28;20032;-71
2022/06/19 18:23:21;;;;;;;4.75;2.15;;;;;;;;;;5052952;28;20037;-71
2022/06/19 18:26:40;;;;;;;11.48;3.40;;;;;;;;;;5052833;28;20401;-71
2022/06/19 18:29:59;;;;;;;14.50;5.45;;;;;;;;;;5053376;28;20037;-70
2022/06/19 18:33:03;;;;;;;12.57;3.10;;;;;;;;;;5052931;28;20045;-70
2022/06/19 18:36:15;;;;;;;12.75;6.00;;;;;;;;;;5053054;28;20045;-71
2022/06/19 18:39:20;;;;;;;16.27;3.25;;;;;;;;;;5040803;28;20378;-71
2022/06/19 18:42:25;;;;;;;12.57;3.28;;;;;;;;;;5053218;28;20029;-70
2022/06/19 18:45:29;;;;;;;11.32;2.88;;;;;;;;;;5052784;28;20057;-70
2022/06/19 18:48:33;;;;;;;12.23;2.60;;;;;;;;;;5052450;28;20465;-70
2022/06/19 18:51:38;;;;;;;11.05;2.83;;;;;;;;;;5052975;28;20045;-70
2022/06/19 18:54:43;;;;;;;14.90;3.70;;;;;;;;;;5052908;28;20025;-70
2022/06/19 18:57:47;;;;;;;14.38;4.18;;;;;;;;;;5040746;28;20040;-70
2022/06/19 19:00:53;;;;;;;18.35;3.85;;;;;;;;;;5052913;28;20028;-70
2022/06/19 19:03:57;;;;;;;11.23;4.22;;;;;;;;;;5051951;28;20401;-70
2022/06/19 19:07:03;;;;;;;11.13;3.05;;;;;;;;;;5052520;28;20033;-70
2022/06/19 19:10:14;;;;;;;13.50;3.08;;;;;;;;;;5052724;28;20036;-70
2022/06/19 19:13:23;;;;;;;12.77;3.00;;;;;;;;;;5052618;28;20476;-70